Bluff Dale, TX

7:47 PM CDT on May 03, 2015 (GMT -0500)
Chalk Mountain | | Change Station
CLOSE
Current Station
Personal Weather Station
Location: Glen Rose, TX
Elevation: 981 ft
Nearby Weather Stations

Elev 981 ft 32.20 °N, 97.91 °W | Updated 2 minutes ago

Clear
Clear
77.5 °F
Feels Like 79 °F
N
9.0
Wind Variable Wind from SSE
Gusts 17.0 mph

Today
High -- | Low -- °F
--% Chance of Precip.
Yesterday
High -- | Low -- °F
Precip. -- in
6:43 AM 8:13 PM
Full, 100% visible
Pressure 29.93 in
Visibility 10.0 miles
Clouds Scattered Clouds 3200 ft
Scattered Clouds 4800 ft
Scattered Clouds 5500 ft
Heat Index 79 °F
Dew Point 57 °F
Humidity 50%
Rainfall 0.00 in
Snow Depth Not available.
UV 0.0 out of 12
Pollen 7.80 out of 12
Air Quality Not available.
Flu Activity Sporadic
METAR KGDJ 040035Z AUTO 13010KT 10SM SCT032 SCT048 SCT055 27/14 A2993 RMK AO2 T02670137

More Conditions Fewer Conditions

Pressure 29.93 in
Visibility 10.0 miles
Clouds Scattered Clouds 3200 ft
Scattered Clouds 4800 ft
Scattered Clouds 5500 ft
Heat Index 79 °F
Dew Point 57 °F
Humidity 50%
Rainfall 0.00 in
Snow Depth Not available.
UV 0.0 out of 12
Pollen 7.80 out of 12
Air Quality Not available.
Flu Activity Sporadic
METAR KGDJ 040035Z AUTO 13010KT 10SM SCT032 SCT048 SCT055 27/14 A2993 RMK AO2 T02670137

More Conditions Fewer Conditions

Nepal has a long way to go to dig out and rebuild from a devastating earthquake. We have teamed up with several charities and organizations to make contributing to the relief effort as easy as possible.
How you can help: Portlight Strategies | Red Cross

10-Day Weather Forecast

Almanac

Astronomy

May. 03, 2015 Rise Set
Actual Time
Civil Twilight
Nautical Twilight
Astronomical Twilight
Moon
Length of Visible Light
Length of Day
Tomorrow will be .
, % of the Moon is Illuminated

Today's Extremes

State Highs State Lows

Community

WunderPhotos

Upload Photos

1,818,446 photos uploaded!

WunderBlogs® & News

Nearby

Air Quality

  Air Quality AQ Index Pollutant
Not available.

Snow Depth

Station Depth Elevation

Earthquake Activity

City Distance Mag. Time & Date
Minimum magnitude displayed is 2.5.

Coastal Water Temperatures

Place Temperature

Stations

Nearby Weather Stations

Station Location Temp. Windchill Dew Point Humidity Wind Precip. Elev Updated Type